Ruidoso, NM

2:59 PM MST on December 17, 2014 (GMT -0700)
Ruidoso Mid-Town @ Eagle/Sudderth | Change Station
CLOSE
Current Station
Personal Weather Station
Location: Ruidoso, NM
Elevation: 6705 ft
Nearby Weather Stations

Elev 6705 ft 33.33 °N, 105.67 °W | Updated 1 minute ago

Mostly Cloudy
Mostly Cloudy
34.3 °F
Feels Like 30 °F
N
5.0
Wind Variable Wind from SSW
Gusts 10.0 mph

Today
High -- | Low -- °F
--% Chance of Precip.
Yesterday
High -- | Low -- °F
Precip. -- in
7:00 AM 4:57 PM
Waning Crescent, 19% visible
Pressure 29.97 in
Visibility 10.0 miles
Clouds Clear
Windchill 30 °F
Dew Point 5 °F
Humidity 29%
Rainfall 0.02 in
Snow Depth Not available.
UV 2 out of 12
Pollen 6.60 out of 12
Air Quality Not available.
Flu Activity Not available.
METAR KSRR 172135Z AUTO 24027G37KT 10SM CLR 06/M03 A2997 RMK AO2

More Conditions Fewer Conditions

Pressure 29.97 in
Visibility 10.0 miles
Clouds Clear
Windchill 30 °F
Dew Point 5 °F
Humidity 29%
Rainfall 0.02 in
Snow Depth Not available.
UV 2 out of 12
Pollen 6.60 out of 12
Air Quality Not available.
Flu Activity Not available.
METAR KSRR 172135Z AUTO 24027G37KT 10SM CLR 06/M03 A2997 RMK AO2

More Conditions Fewer Conditions

10-Day Weather Forecast

Almanac

Astronomy

Dec. 17, 2014 Rise Set
Actual Time
Civil Twilight
Nautical Twilight
Astronomical Twilight
Moon
Length of Visible Light
Length of Day
Tomorrow will be .
, % of the Moon is Illuminated

Today's Extremes

State Highs State Lows

Community

WunderPhotos

Upload Photos

1,778,807 photos uploaded!

WunderBlogs® & News

Nearby

Air Quality

  Air Quality AQ Index Pollutant
Not available.

Snow Depth

Station Depth Elevation

Earthquake Activity

City Distance Mag. Time & Date
Minimum magnitude displayed is 2.5.

Coastal Water Temperatures

Place Temperature

Nearby Weather Stations